Time;durP1;ratioP1;P1;durP2;ratioP2;P2;SDS_P1;SDS_P2;PMS_P1;PMS_P2;Temp;Humidity;BMP_temperature;BMP_pressure;BME280_temperature;BME280_humidity;BME280_pressure;Samples;Min_cycle;Max_cycle;Signal;HPM_P1;HPM_P2
2020/12/31 00:01:22;;;;;;;15.63;11.67;;;;;;;3.32;100.00;97087.41;5092765;28;20215;-70
2020/12/31 00:03:48;;;;;;;18.60;11.43;;;;;;;3.31;100.00;97088.53;5092276;28;20205;-70
2020/12/31 00:06:15;;;;;;;16.37;11.57;;;;;;;3.36;100.00;97087.59;5091346;28;20217;-69
2020/12/31 00:08:42;;;;;;;15.17;11.93;;;;;;;3.60;100.00;97091.50;5092159;28;20205;-69
2020/12/31 00:11:08;;;;;;;15.53;11.60;;;;;;;3.38;100.00;97097.06;5082973;28;20284;-69
2020/12/31 00:13:35;;;;;;;15.47;11.43;;;;;;;3.41;100.00;97099.16;5070809;28;20555;-69
2020/12/31 00:16:01;;;;;;;17.33;11.73;;;;;;;3.52;100.00;97100.44;5070967;28;20315;-69
2020/12/31 00:18:28;;;;;;;17.40;12.00;;;;;;;3.26;100.00;97096.88;5054499;28;20201;-69
2020/12/31 00:20:54;;;;;;;20.73;11.77;;;;;;;3.13;100.00;97099.69;5088658;28;20209;-70
2020/12/31 00:23:20;;;;;;;17.60;11.90;;;;;;;3.24;100.00;97098.28;5091717;28;20277;-69
2020/12/31 00:25:48;;;;;;;18.63;12.30;;;;;;;2.95;100.00;97105.09;5091938;28;20636;-70
2020/12/31 00:28:16;;;;;;;17.50;12.00;;;;;;;2.85;100.00;97101.81;5092325;28;20232;-70
2020/12/31 00:30:43;;;;;;;16.47;12.53;;;;;;;2.93;100.00;97115.50;5091989;28;20209;-70
2020/12/31 00:33:10;;;;;;;17.10;12.67;;;;;;;3.03;100.00;97108.94;5091512;28;20266;-69
2020/12/31 00:35:39;;;;;;;17.60;12.03;;;;;;;3.04;100.00;97113.28;5097997;28;20209;-71
2020/12/31 00:38:05;;;;;;;19.73;12.10;;;;;;;2.93;100.00;97106.50;5108492;28;20287;-71
2020/12/31 00:40:33;;;;;;;18.90;12.37;;;;;;;2.93;100.00;97112.78;5092301;28;20208;-73
2020/12/31 00:43:00;;;;;;;18.37;12.57;;;;;;;3.04;100.00;97110.56;5091868;28;20276;-72
2020/12/31 00:45:27;;;;;;;18.57;12.47;;;;;;;2.93;100.00;97109.22;5091977;28;20701;-71
2020/12/31 00:47:54;;;;;;;15.17;12.07;;;;;;;2.84;100.00;97113.84;5091906;28;20236;-70
2020/12/31 00:50:22;;;;;;;18.27;12.23;;;;;;;2.87;100.00;97115.91;5090517;28;20239;-70
2020/12/31 00:52:49;;;;;;;16.90;11.50;;;;;;;3.12;100.00;97123.41;5091270;28;20232;-71
2020/12/31 00:55:16;;;;;;;19.40;12.60;;;;;;;3.13;100.00;97124.22;5091552;28;20282;-71
2020/12/31 00:57:42;;;;;;;17.63;12.07;;;;;;;2.92;100.00;97123.94;5090528;28;20295;-71
2020/12/31 01:33:52;;;;;;;17.93;13.43;;;;;;;3.18;100.00;97126.81;5150342;27;20489;-71
2020/12/31 01:36:18;;;;;;;19.57;13.83;;;;;;;3.62;100.00;97113.81;5137541;27;20321;-71
2020/12/31 01:38:45;;;;;;;18.47;13.20;;;;;;;3.24;100.00;97112.72;5150176;27;20619;-71
2020/12/31 01:41:12;;;;;;;18.70;12.70;;;;;;;2.99;100.00;97113.44;5150289;27;20289;-71
2020/12/31 01:43:39;;;;;;;20.03;13.17;;;;;;;3.38;100.00;97110.69;5149510;27;20230;-71
2020/12/31 01:46:10;;;;;;;19.43;13.77;;;;;;;3.69;100.00;97108.69;5149977;27;20277;-70
2020/12/31 01:48:38;;;;;;;16.97;13.00;;;;;;;3.14;100.00;97112.22;5149855;27;20684;-70
2020/12/31 01:51:04;;;;;;;19.90;12.77;;;;;;;3.21;100.00;97113.38;5149622;27;20303;-70
2020/12/31 01:53:31;;;;;;;19.23;12.83;;;;;;;2.93;100.00;97109.22;5152986;27;20635;-70
2020/12/31 01:56:00;;;;;;;17.97;13.27;;;;;;;3.01;100.00;97103.81;5152399;27;20317;-70
2020/12/31 01:58:26;;;;;;;16.43;12.80;;;;;;;2.95;100.00;97107.81;5149880;27;20667;-70
2020/12/31 02:00:56;;;;;;;18.67;12.37;;;;;;;2.93;100.00;97104.59;5149587;27;20300;-70
2020/12/31 02:03:22;;;;;;;18.43;13.30;;;;;;;2.99;100.00;97113.44;5149014;27;20294;-70
2020/12/31 02:05:48;;;;;;;18.13;12.77;;;;;;;2.88;100.00;97112.09;5158530;27;20222;-69
2020/12/31 02:08:16;;;;;;;17.17;12.73;;;;;;;2.89;100.00;97114.50;5159538;27;20199;-69
2020/12/31 02:10:42;;;;;;;18.80;13.00;;;;;;;2.87;100.00;97118.66;5149578;27;20203;-70
2020/12/31 02:13:08;;;;;;;19.00;12.73;;;;;;;2.95;100.00;97117.91;5149039;27;20279;-71
2020/12/31 02:15:34;;;;;;;16.63;12.77;;;;;;;2.77;100.00;97121.66;5149377;27;20226;-71
2020/12/31 02:18:00;;;;;;;18.27;13.17;;;;;;;2.91;100.00;97116.91;5149240;27;20245;-72
2020/12/31 02:20:26;;;;;;;18.27;12.83;;;;;;;2.85;100.00;97118.97;5149292;27;20211;-72
2020/12/31 02:22:52;;;;;;;17.57;12.90;;;;;;;2.95;100.00;97117.91;5149042;27;20652;-72
2020/12/31 02:25:18;;;;;;;17.13;12.97;;;;;;;3.08;100.00;97117.78;5148958;27;20209;-71
2020/12/31 02:27:44;;;;;;;15.53;11.60;;;;;;;3.12;100.00;97122.63;5149087;27;20207;-71
2020/12/31 02:30:10;;;;;;;18.10;12.27;;;;;;;2.91;100.00;97116.91;5147662;27;20210;-71
2020/12/31 02:32:37;;;;;;;15.97;11.43;;;;;;;2.80;100.00;97119.09;5147345;27;20355;-71
2020/12/31 02:35:04;;;;;;;16.07;11.77;;;;;;;2.64;100.00;97117.91;5148455;27;20694;-71
2020/12/31 02:37:30;;;;;;;15.87;12.27;;;;;;;2.67;100.00;97119.19;5148856;27;20279;-71
2020/12/31 02:39:56;;;;;;;19.07;11.90;;;;;;;2.62;100.00;97119.31;5148801;27;20234;-71
2020/12/31 02:42:22;;;;;;;16.83;11.60;;;;;;;2.77;100.00;97124.38;5148223;27;20228;-70
2020/12/31 02:44:48;;;;;;;17.23;12.90;;;;;;;2.64;100.00;97125.25;5135936;27;20242;-70
2020/12/31 02:47:14;;;;;;;19.83;12.63;;;;;;;2.77;100.00;97127.09;5134175;27;20727;-70
2020/12/31 02:49:41;;;;;;;16.30;12.13;;;;;;;2.89;100.00;97130.03;5134569;27;20214;-70
2020/12/31 02:52:07;;;;;;;18.97;12.80;;;;;;;2.76;100.00;97128.19;5133428;27;20222;-72
2020/12/31 02:54:33;;;;;;;18.37;12.60;;;;;;;2.47;100.00;97125.13;5134242;27;20743;-72
2020/12/31 02:56:59;;;;;;;18.03;12.97;;;;;;;2.74;100.00;97127.69;5134475;27;20231;-71
2020/12/31 02:59:25;;;;;;;15.87;12.77;;;;;;;2.70;100.00;97132.19;5134374;27;20587;-71
2020/12/31 03:01:53;;;;;;;15.97;12.00;;;;;;;2.78;100.00;97120.53;5134470;27;20203;-70
2020/12/31 03:04:19;;;;;;;17.13;12.23;;;;;;;2.72;100.00;97121.78;5134317;27;20199;-71
2020/12/31 03:06:45;;;;;;;16.57;12.00;;;;;;;2.59;100.00;97136.28;5134514;27;20287;-72
2020/12/31 03:09:11;;;;;;;17.33;12.20;;;;;;;2.71;100.00;97128.34;5134585;27;20207;-71
2020/12/31 03:11:37;;;;;;;18.40;11.73;;;;;;;3.13;100.00;97125.03;5120628;27;20207;-72
2020/12/31 03:14:04;;;;;;;17.27;12.87;;;;;;;2.77;100.00;97121.66;5113397;27;20211;-72
2020/12/31 03:16:30;;;;;;;17.93;12.97;;;;;;;2.61;100.00;97117.72;5113845;28;20249;-71
2020/12/31 03:18:56;;;;;;;14.43;11.53;;;;;;;2.72;100.00;97125.31;5112914;27;20286;-71
2020/12/31 03:21:22;;;;;;;19.00;11.80;;;;;;;3.02;100.00;97124.50;5134302;27;20199;-71
2020/12/31 03:23:48;;;;;;;16.83;12.50;;;;;;;2.77;100.00;97129.81;5133680;27;20299;-70
2020/12/31 03:26:14;;;;;;;16.47;11.13;;;;;;;2.65;100.00;97124.13;5133993;27;20266;-70
2020/12/31 03:28:40;;;;;;;15.93;11.57;;;;;;;2.58;100.00;97119.13;5134017;27;20238;-70
2020/12/31 03:31:07;;;;;;;17.63;11.87;;;;;;;2.50;100.00;97122.59;5132251;27;20608;-70
2020/12/31 03:33:33;;;;;;;17.77;12.27;;;;;;;2.42;100.00;97122.53;5133623;27;20272;-69
2020/12/31 03:35:59;;;;;;;16.70;12.20;;;;;;;2.48;100.00;97124.03;5135146;27;20293;-69
2020/12/31 03:38:25;;;;;;;16.50;12.13;;;;;;;2.48;100.00;97116.66;5139751;27;20760;-70
2020/12/31 03:40:51;;;;;;;17.77;13.27;;;;;;;2.59;100.00;97118.00;5143855;27;20275;-69
2020/12/31 03:43:17;;;;;;;18.07;12.43;;;;;;;2.52;100.00;97117.66;5141713;27;20203;-70
2020/12/31 03:45:43;;;;;;;17.13;13.03;;;;;;;2.48;100.00;97124.03;5136582;27;20258;-70
2020/12/31 03:48:10;;;;;;;18.93;12.30;;;;;;;2.75;100.00;97115.72;5135741;27;20211;-70
2020/12/31 03:50:37;;;;;;;17.97;12.77;;;;;;;2.92;100.00;97113.06;5137221;27;20203;-70
2020/12/31 03:53:03;;;;;;;16.93;11.93;;;;;;;2.74;100.00;97114.09;5134892;27;20235;-69
2020/12/31 03:55:30;;;;;;;17.00;11.63;;;;;;;2.47;100.00;97111.53;5132943;27;20231;-70
2020/12/31 03:57:56;;;;;;;16.73;12.57;;;;;;;2.66;100.00;97123.03;5133562;27;20290;-72
2020/12/31 04:00:22;;;;;;;15.03;11.57;;;;;;;2.50;100.00;97108.19;5133186;27;20690;-71
2020/12/31 04:02:48;;;;;;;16.40;12.40;;;;;;;2.52;100.00;97105.97;5133099;27;20260;-71
2020/12/31 04:05:14;;;;;;;18.83;12.23;;;;;;;2.63;100.00;97110.00;5132088;27;20260;-71
2020/12/31 04:07:40;;;;;;;20.10;12.83;;;;;;;2.68;100.00;97107.97;5132159;27;20295;-70
2020/12/31 04:10:06;;;;;;;17.77;12.40;;;;;;;2.78;100.00;97102.28;5132228;27;20207;-71
2020/12/31 04:12:33;;;;;;;21.20;12.60;;;;;;;2.59;100.00;97103.59;5112396;28;20227;-70
2020/12/31 04:14:59;;;;;;;18.63;12.60;;;;;;;2.55;100.00;97102.63;5112282;28;20211;-71
2020/12/31 04:17:25;;;;;;;16.53;12.03;;;;;;;2.83;100.00;97093.16;5112294;28;20263;-71
2020/12/31 04:19:51;;;;;;;14.53;12.13;;;;;;;2.62;100.00;97097.53;5120550;27;20264;-70
2020/12/31 04:22:17;;;;;;;13.90;11.33;;;;;;;2.71;100.00;97082.03;5135711;27;20664;-70
2020/12/31 04:24:44;;;;;;;15.67;12.13;;;;;;;2.45;100.00;97081.09;5139361;27;20219;-70
2020/12/31 04:27:10;;;;;;;16.07;11.60;;;;;;;2.61;100.00;97076.88;5132781;27;20223;-70
2020/12/31 04:29:37;;;;;;;14.53;11.73;;;;;;;2.27;100.00;97077.44;5131179;27;20287;-70
2020/12/31 04:32:03;;;;;;;16.63;11.70;;;;;;;2.38;100.00;97072.56;5132620;27;20318;-70
2020/12/31 04:34:29;;;;;;;17.60;12.10;;;;;;;2.37;100.00;97076.41;5132466;27;20720;-70
2020/12/31 04:36:55;;;;;;;15.07;11.77;;;;;;;2.27;100.00;97084.81;5114496;27;20223;-70
2020/12/31 04:39:21;;;;;;;16.83;11.60;;;;;;;2.23;100.00;97087.34;5131572;27;20209;-71
2020/12/31 04:41:47;;;;;;;17.13;11.33;;;;;;;2.11;100.00;97092.56;5114344;27;20686;-70
2020/12/31 04:44:15;;;;;;;16.50;12.00;;;;;;;2.13;100.00;97081.34;5132257;27;20203;-70
2020/12/31 04:46:42;;;;;;;16.57;11.73;;;;;;;1.90;100.00;97075.91;5132517;27;20322;-70
2020/12/31 04:49:16;;;;;;;16.27;12.07;;;;;;;1.91;100.00;97077.53;5132234;27;20667;-70
2020/12/31 04:51:45;;;;;;;14.13;11.47;;;;;;;1.83;100.00;97080.16;5132456;27;20290;-70
2020/12/31 04:54:13;;;;;;;17.10;12.20;;;;;;;1.79;100.00;97079.16;5132196;27;20207;-70
2020/12/31 04:56:39;;;;;;;16.73;13.00;;;;;;;1.90;100.00;97085.97;5130773;27;20258;-70
2020/12/31 04:59:07;;;;;;;17.10;12.43;;;;;;;1.86;100.00;97085.78;5132245;27;20874;-70
2020/12/31 05:01:36;;;;;;;19.73;11.80;;;;;;;1.91;100.00;97093.03;5132174;27;20249;-70
2020/12/31 05:04:02;;;;;;;18.63;13.50;;;;;;;1.81;100.00;97095.97;5131913;27;20282;-72
2020/12/31 05:06:34;;;;;;;18.63;12.53;;;;;;;1.77;100.00;97098.50;5134086;27;20234;-70
2020/12/31 05:09:18;;;;;;;17.43;11.90;;;;;;;1.84;100.00;97096.16;5140556;27;20229;-70
2020/12/31 05:11:52;;;;;;;17.53;11.97;;;;;;;1.93;100.00;97085.38;5135056;27;20714;-70
2020/12/31 05:14:31;;;;;;;18.17;12.37;;;;;;;1.83;100.00;97100.00;5131903;27;20652;-69
2020/12/31 05:17:20;;;;;;;19.93;13.33;;;;;;;1.76;100.00;97105.06;5130668;27;20227;-69
2020/12/31 05:19:47;;;;;;;19.60;12.17;;;;;;;1.73;100.00;97107.59;5131037;27;20207;-70
2020/12/31 05:22:16;;;;;;;21.37;12.90;;;;;;;1.74;100.00;97104.56;5132091;27;20257;-71
2020/12/31 05:24:44;;;;;;;16.27;12.47;;;;;;;1.72;100.00;97105.97;5131631;27;20252;-70
2020/12/31 05:27:24;;;;;;;18.03;12.47;;;;;;;1.66;100.00;97099.03;5131981;27;20310;-69
2020/12/31 05:29:55;;;;;;;18.03;12.70;;;;;;;1.56;100.00;97108.22;5130668;27;20214;-71
2020/12/31 05:32:22;;;;;;;17.77;13.17;;;;;;;1.77;100.00;97100.44;5131710;27;20699;-71
2020/12/31 05:34:48;;;;;;;22.27;12.77;;;;;;;1.54;100.00;97107.72;5130890;28;20290;-70
2020/12/31 05:37:16;;;;;;;18.13;12.90;;;;;;;1.55;100.00;97103.88;5131982;27;20315;-70
2020/12/31 05:39:58;;;;;;;18.27;12.53;;;;;;;1.62;100.00;97098.84;5131073;28;20252;-71
2020/12/31 05:42:25;;;;;;;20.37;13.27;;;;;;;1.63;100.00;97095.00;5131483;27;20747;-71
2020/12/31 05:44:59;;;;;;;16.40;12.30;;;;;;;1.55;100.00;97101.16;5131612;27;20551;-71
2020/12/31 05:47:25;;;;;;;20.97;13.07;;;;;;;1.48;100.00;97098.06;5130603;27;20278;-70
2020/12/31 05:49:54;;;;;;;15.27;11.73;;;;;;;1.37;100.00;97101.31;5131787;27;20625;-70
2020/12/31 05:52:36;;;;;;;17.87;13.03;;;;;;;1.53;100.00;97102.59;5131677;27;20251;-71
2020/12/31 05:55:08;;;;;;;16.70;12.70;;;;;;;1.43;100.00;97098.16;5131304;27;20694;-70
2020/12/31 05:57:42;;;;;;;19.00;13.57;;;;;;;1.59;100.00;97102.16;5130173;28;20223;-70
2020/12/31 06:00:12;;;;;;;18.70;13.37;;;;;;;1.42;100.00;97103.91;5113466;28;20205;-70
2020/12/31 06:02:43;;;;;;;19.13;13.20;;;;;;;1.43;100.00;97098.16;5130126;28;20211;-72
2020/12/31 06:05:14;;;;;;;17.20;12.83;;;;;;;1.43;100.00;97103.59;5130365;27;20223;-71
2020/12/31 06:07:52;;;;;;;19.70;13.07;;;;;;;1.45;100.00;97106.81;5131836;27;20282;-71
2020/12/31 06:10:30;;;;;;;18.07;12.73;;;;;;;1.41;100.00;97105.81;5128941;27;20294;-71
2020/12/31 06:12:59;;;;;;;19.43;13.33;;;;;;;1.38;100.00;97111.06;5109730;28;20277;-71
2020/12/31 06:15:28;;;;;;;16.53;12.90;;;;;;;1.35;100.00;97115.19;5111060;28;20211;-70
2020/12/31 06:17:55;;;;;;;17.30;12.93;;;;;;;1.32;100.00;97112.25;5111061;28;20203;-70
2020/12/31 06:20:23;;;;;;;16.70;12.73;;;;;;;1.33;100.00;97125.56;5126473;27;20735;-70
2020/12/31 06:23:04;;;;;;;16.00;12.00;;;;;;;1.62;100.00;97133.38;5135407;27;20268;-70
2020/12/31 06:25:31;;;;;;;16.00;12.43;;;;;;;1.74;100.00;97139.91;5133979;27;20629;-69
2020/12/31 06:28:04;;;;;;;17.67;12.17;;;;;;;1.86;100.00;97144.81;5133960;27;20231;-70
2020/12/31 06:30:31;;;;;;;17.13;12.20;;;;;;;1.59;100.00;97137.50;5135014;27;20214;-69
2020/12/31 06:33:03;;;;;;;16.20;12.57;;;;;;;1.67;100.00;97136.81;5134779;27;20227;-70
2020/12/31 06:35:29;;;;;;;15.23;11.93;;;;;;;1.64;100.00;97145.53;5133914;27;20242;-69
2020/12/31 06:38:00;;;;;;;17.63;11.83;;;;;;;1.49;100.00;97158.66;5141611;27;20218;-69
2020/12/31 06:40:29;;;;;;;16.20;11.07;;;;;;;1.54;100.00;97153.94;5155540;27;20199;-70
2020/12/31 06:43:14;;;;;;;16.67;11.80;;;;;;;1.65;100.00;97147.16;5136678;27;20246;-70
2020/12/31 06:45:48;;;;;;;14.87;11.23;;;;;;;1.65;100.00;97155.31;5134973;27;20233;-70
2020/12/31 06:48:26;;;;;;;18.47;11.07;;;;;;;2.08;100.00;97151.09;5116541;27;20209;-70
2020/12/31 06:50:58;;;;;;;13.77;10.73;;;;;;;1.63;100.00;97149.38;5134493;27;20203;-71
2020/12/31 06:53:47;;;;;;;13.93;10.77;;;;;;;1.62;100.00;97155.94;5133227;27;20238;-70
2020/12/31 06:56:46;;;;;;;18.03;11.40;;;;;;;1.53;100.00;97140.66;5134731;27;20224;-70
2020/12/31 06:59:33;;;;;;;18.70;11.80;;;;;;;1.83;100.00;97143.50;5134566;27;20205;-70
2020/12/31 07:02:03;;;;;;;15.27;10.27;;;;;;;1.66;100.00;97151.47;5134819;27;20238;-70
2020/12/31 07:04:30;;;;;;;13.63;10.20;;;;;;;1.53;100.00;97159.66;5134399;27;20256;-70
2020/12/31 07:07:00;;;;;;;15.30;9.77;;;;;;;1.59;100.00;97161.16;5134669;27;20306;-69
2020/12/31 07:09:32;;;;;;;13.03;9.97;;;;;;;1.66;100.00;97161.59;5133381;27;20740;-69
2020/12/31 07:12:03;;;;;;;12.70;9.93;;;;;;;1.66;100.00;97164.28;5132299;27;20668;-69
2020/12/31 07:14:31;;;;;;;14.20;10.03;;;;;;;1.65;100.00;97151.78;5142858;27;20199;-69
2020/12/31 07:17:06;;;;;;;14.20;10.67;;;;;;;1.63;100.00;97165.69;5154668;27;20692;-70
2020/12/31 07:19:40;;;;;;;12.50;9.57;;;;;;;1.61;100.00;97159.75;5148123;27;20195;-70
2020/12/31 07:22:16;;;;;;;12.97;10.07;;;;;;;1.56;100.00;97175.38;5134507;27;20261;-70
2020/12/31 07:25:09;;;;;;;13.30;10.00;;;;;;;1.55;100.00;97171.84;5140107;27;20230;-70
2020/12/31 07:27:40;;;;;;;13.90;9.40;;;;;;;1.54;100.00;97172.16;5168438;27;20264;-70
2020/12/31 07:30:20;;;;;;;13.30;9.20;;;;;;;1.73;100.00;97156.53;5168125;27;20209;-69
2020/12/31 07:32:49;;;;;;;12.83;9.57;;;;;;;1.64;100.00;97164.56;5140523;27;20223;-72
2020/12/31 07:35:28;;;;;;;13.40;9.87;;;;;;;1.73;100.00;97154.59;5133909;27;20207;-69
2020/12/31 07:38:02;;;;;;;13.97;10.47;;;;;;;1.89;100.00;97150.47;5132452;27;20656;-70
2020/12/31 07:40:33;;;;;;;12.17;10.13;;;;;;;1.77;100.00;97146.66;5133895;27;20610;-71
2020/12/31 07:43:00;;;;;;;14.30;10.07;;;;;;;1.80;100.00;97152.28;5133218;27;20200;-70
2020/12/31 07:45:27;;;;;;;11.13;8.97;;;;;;;1.92;100.00;97149.03;5133388;27;20713;-69
2020/12/31 07:47:55;;;;;;;11.27;8.97;;;;;;;2.00;100.00;97143.69;5132658;27;20249;-70
2020/12/31 07:50:22;;;;;;;12.30;9.47;;;;;;;1.99;100.00;97142.06;5132280;27;20243;-70
2020/12/31 07:52:51;;;;;;;12.07;8.47;;;;;;;1.84;100.00;97142.38;5132665;27;20334;-69
2020/12/31 07:55:17;;;;;;;11.17;8.90;;;;;;;2.08;100.00;97146.78;5133686;27;20238;-70
2020/12/31 07:57:44;;;;;;;12.83;8.80;;;;;;;2.08;100.00;97134.78;5132308;27;20246;-70
2020/12/31 08:00:15;;;;;;;12.30;8.90;;;;;;;2.48;100.00;97129.47;5132578;27;20242;-69
2020/12/31 08:02:44;;;;;;;10.23;8.43;;;;;;;2.41;100.00;97135.34;5133310;27;20611;-69
2020/12/31 08:05:15;;;;;;;12.77;8.43;;;;;;;2.18;100.00;97131.00;5132877;27;20199;-69
2020/12/31 08:07:41;;;;;;;11.23;7.90;;;;;;;2.17;100.00;97134.03;5139205;27;20233;-69
2020/12/31 08:10:09;;;;;;;9.27;7.50;;;;;;;2.37;100.00;97136.28;5156804;27;20217;-69
2020/12/31 08:12:38;;;;;;;10.73;7.60;;;;;;;2.35;100.00;97133.06;5142351;27;20250;-69
2020/12/31 08:15:06;;;;;;;10.10;8.27;;;;;;;2.34;100.00;97134.97;5114250;27;20207;-68
2020/12/31 08:17:33;;;;;;;15.73;8.17;;;;;;;2.23;100.00;97124.66;5132647;27;20227;-70
2020/12/31 08:20:01;;;;;;;9.57;8.03;;;;;;;2.29;100.00;97123.41;5132904;27;20217;-71
2020/12/31 08:22:40;;;;;;;8.97;7.50;;;;;;;2.11;100.00;97125.19;5132826;27;20203;-70
2020/12/31 08:25:11;;;;;;;9.57;7.93;;;;;;;2.27;100.00;97133.78;5131142;27;20617;-69
2020/12/31 08:27:39;;;;;;;11.00;8.03;;;;;;;2.47;100.00;97136.03;5131424;27;20231;-70
2020/12/31 08:30:07;;;;;;;12.03;8.07;;;;;;;2.53;100.00;97126.63;5132328;27;20275;-70
2020/12/31 08:32:51;;;;;;;12.87;6.83;;;;;;;2.60;100.00;97132.44;5131235;27;20309;-69
2020/12/31 08:35:27;;;;;;;8.93;6.80;;;;;;;2.38;100.00;97129.72;5131956;27;20199;-69
2020/12/31 08:38:00;;;;;;;8.73;6.93;;;;;;;2.63;100.00;97127.16;5122104;27;20199;-69
2020/12/31 08:40:27;;;;;;;10.57;7.43;;;;;;;2.40;100.00;97124.78;5108295;27;20226;-69
2020/12/31 08:42:54;;;;;;;8.80;7.00;;;;;;;2.31;100.00;97127.44;5106892;28;20226;-69
2020/12/31 08:45:31;;;;;;;10.07;7.70;;;;;;;2.25;100.00;97125.13;5105662;28;20295;-69
2020/12/31 08:48:09;;;;;;;9.80;7.73;;;;;;;2.34;100.00;97123.28;5107545;28;20675;-69
2020/12/31 08:50:35;;;;;;;12.73;9.00;;;;;;;2.44;100.00;97117.59;5107428;28;20294;-69
2020/12/31 08:53:05;;;;;;;11.50;8.10;;;;;;;2.79;100.00;97120.22;5106342;28;20751;-69
2020/12/31 08:55:35;;;;;;;9.30;7.50;;;;;;;3.55;100.00;97110.75;5124954;27;20297;-69
2020/12/31 08:58:15;;;;;;;10.10;7.60;;;;;;;3.95;100.00;97109.53;5128393;27;20222;-70
2020/12/31 09:00:42;;;;;;;10.63;6.47;;;;;;;4.39;100.00;97096.66;5126830;27;20206;-69
2020/12/31 09:03:09;;;;;;;8.50;6.70;;;;;;;3.96;100.00;97097.47;5126403;27;20924;-69
2020/12/31 09:05:35;;;;;;;8.23;6.40;;;;;;;3.93;100.00;97100.03;5127245;27;20230;-69
2020/12/31 09:08:02;;;;;;;8.37;6.67;;;;;;;3.44;100.00;97103.16;5126854;27;20575;-70
2020/12/31 09:10:31;;;;;;;7.10;6.17;;;;;;;3.25;100.00;97106.16;5135082;27;20732;-69
2020/12/31 09:12:58;;;;;;;7.07;6.03;;;;;;;3.70;100.00;97093.94;5126163;27;20238;-69
2020/12/31 09:15:24;;;;;;;7.53;6.10;;;;;;;4.30;100.00;97087.69;5128378;27;20306;-71
2020/12/31 09:17:50;;;;;;;7.27;5.70;;;;;;;5.38;100.00;97074.34;5129301;27;20663;-69
2020/12/31 09:20:25;;;;;;;7.43;5.87;;;;;;;6.32;100.00;97057.25;5129548;27;20273;-70
2020/12/31 09:22:52;;;;;;;6.30;5.27;;;;;;;4.89;100.00;97062.19;5131275;27;20687;-70
2020/12/31 09:25:19;;;;;;;6.60;5.20;;;;;;;5.38;100.00;97058.75;5131171;27;20619;-70
2020/12/31 09:27:45;;;;;;;7.07;5.40;;;;;;;5.39;100.00;97060.31;5132090;27;20634;-70
2020/12/31 09:30:14;;;;;;;6.43;5.50;;;;;;;5.86;100.00;97070.03;5132163;27;20289;-70
2020/12/31 09:32:44;;;;;;;7.27;5.50;;;;;;;5.41;100.00;97054.53;5130270;28;20309;-69
2020/12/31 09:35:10;;;;;;;8.07;5.60;;;;;;;6.79;100.00;97053.06;5131589;27;20314;-69
2020/12/31 09:37:56;;;;;;;7.43;5.87;;;;;;;5.23;100.00;97050.28;5131390;27;20280;-70
2020/12/31 09:40:24;;;;;;;6.50;5.57;;;;;;;4.65;100.00;97051.78;5140177;28;20230;-69
2020/12/31 09:42:50;;;;;;;8.33;5.80;;;;;;;4.23;100.00;97052.69;5146882;27;20199;-70
2020/12/31 09:45:17;;;;;;;7.80;5.93;;;;;;;5.65;100.00;97058.25;5131390;27;20206;-70
2020/12/31 09:47:44;;;;;;;7.17;5.83;;;;;;;5.71;100.00;97043.22;5130879;27;20238;-74
2020/12/31 09:50:10;;;;;;;6.33;5.60;;;;;;;6.64;100.00;97040.81;5131018;27;20594;-71
2020/12/31 09:52:38;;;;;;;8.47;5.83;;;;;;;6.61;100.00;97025.06;5131634;27;20273;-72
2020/12/31 09:55:21;;;;;;;8.90;5.80;;;;;;;8.06;100.00;97014.81;5134735;27;20195;-70
2020/12/31 09:57:47;;;;;;;9.53;5.80;;;;;;;7.54;100.00;97019.50;5135483;27;20722;-70
2020/12/31 10:00:13;;;;;;;6.43;5.67;;;;;;;7.67;100.00;97017.53;5134035;27;20246;-71
2020/12/31 10:02:39;;;;;;;6.47;5.13;;;;;;;7.91;100.00;97017.50;5133917;27;20235;-71
2020/12/31 10:05:06;;;;;;;7.53;5.80;;;;;;;8.06;100.00;97020.31;5134934;27;20203;-71
2020/12/31 10:07:32;;;;;;;6.23;5.27;;;;;;;7.45;100.00;97015.28;5135191;27;20302;-71
2020/12/31 10:09:59;;;;;;;6.90;4.97;;;;;;;6.88;100.00;97009.91;5135595;27;20243;-73
2020/12/31 10:12:26;;;;;;;6.87;5.23;;;;;;;7.33;100.00;96996.09;5134986;27;20812;-71
2020/12/31 10:14:57;;;;;;;5.37;4.67;;;;;;;6.43;100.00;97004.44;5135189;27;20242;-71
2020/12/31 10:17:23;;;;;;;5.87;5.03;;;;;;;6.17;100.00;96992.94;5133662;27;20246;-71
2020/12/31 10:19:49;;;;;;;8.43;5.10;;;;;;;6.59;100.00;96999.13;5134858;27;20271;-74
2020/12/31 10:22:15;;;;;;;6.97;5.27;;;;;;;6.89;100.00;96993.13;5134042;27;20264;-71
2020/12/31 10:24:41;;;;;;;6.40;5.40;;;;;;;6.37;100.00;97000.31;5137683;27;20203;-72
2020/12/31 10:27:07;;;;;;;8.70;5.67;;;;;;;6.53;100.00;96984.03;5149081;27;20359;-72
2020/12/31 10:29:33;;;;;;;5.77;5.17;;;;;;;5.79;100.00;96993.09;5139985;27;20242;-71
2020/12/31 10:31:59;;;;;;;8.63;6.60;;;;;;;5.52;100.00;96977.22;5134237;27;20214;-72
2020/12/31 10:34:27;;;;;;;10.00;6.23;;;;;;;6.21;100.00;96971.97;5133945;27;20362;-72
2020/12/31 10:36:54;;;;;;;8.10;6.07;;;;;;;6.93;100.00;96974.06;5134569;27;20300;-71
2020/12/31 10:39:22;;;;;;;7.33;6.00;;;;;;;6.62;100.00;96965.56;5133738;27;20249;-72
2020/12/31 10:41:49;;;;;;;8.30;6.20;;;;;;;6.88;100.00;96963.28;5140862;27;20250;-69
2020/12/31 10:44:16;;;;;;;7.33;6.13;;;;;;;5.84;100.00;96964.72;5154682;27;20667;-69
2020/12/31 10:46:43;;;;;;;8.10;6.10;;;;;;;6.89;100.00;96965.72;5155216;27;20222;-70
2020/12/31 10:49:09;;;;;;;6.27;5.57;;;;;;;6.06;100.00;96970.66;5155406;27;20198;-72
2020/12/31 10:51:36;;;;;;;7.83;6.30;;;;;;;5.99;100.00;96964.94;5153988;27;20255;-71
2020/12/31 10:54:03;;;;;;;7.80;5.67;;;;;;;6.09;100.00;96961.75;5154968;27;20699;-68
2020/12/31 10:56:30;;;;;;;7.97;6.00;;;;;;;5.73;100.00;96958.84;5154708;27;20227;-70
2020/12/31 10:58:57;;;;;;;8.07;6.13;;;;;;;6.26;100.00;96951.78;5136355;27;20230;-69
2020/12/31 11:01:23;;;;;;;7.63;6.03;;;;;;;6.75;100.00;96940.56;5153942;27;20285;-70
2020/12/31 11:03:49;;;;;;;7.23;6.10;;;;;;;6.26;100.00;96946.31;5154478;27;20690;-70
2020/12/31 11:06:26;;;;;;;6.57;5.83;;;;;;;7.04;100.00;96929.34;5154948;27;20233;-70
2020/12/31 11:08:54;;;;;;;8.50;5.80;;;;;;;5.94;100.00;96945.19;5173244;27;20206;-69
2020/12/31 11:11:25;;;;;;;7.83;6.20;;;;;;;5.80;100.00;96928.22;5161623;27;20225;-72
2020/12/31 11:13:52;;;;;;;8.27;6.00;;;;;;;5.51;100.00;96931.81;5137529;27;20249;-73
2020/12/31 11:16:18;;;;;;;7.90;6.50;;;;;;;5.53;100.00;96921.34;5137480;27;20696;-70
2020/12/31 11:18:45;;;;;;;6.83;6.10;;;;;;;6.89;100.00;96921.84;5134116;27;20215;-71
2020/12/31 11:21:15;;;;;;;7.13;5.97;;;;;;;6.17;100.00;96919.00;5133993;27;20203;-71
2020/12/31 11:23:42;;;;;;;7.47;6.20;;;;;;;5.85;100.00;96909.69;5132701;27;20238;-70
2020/12/31 11:26:12;;;;;;;6.80;5.53;;;;;;;5.53;100.00;96906.88;5133496;27;20227;-69
2020/12/31 11:28:39;;;;;;;8.17;5.97;;;;;;;5.85;100.00;96906.94;5134272;27;20306;-70
2020/12/31 11:31:12;;;;;;;9.13;6.30;;;;;;;5.52;100.00;96908.00;5133391;27;20645;-70
2020/12/31 11:33:44;;;;;;;7.33;6.40;;;;;;;5.34;100.00;96899.16;5132294;27;20227;-71
2020/12/31 11:36:11;;;;;;;7.77;5.90;;;;;;;5.69;100.00;96900.44;5133264;27;20283;-69
2020/12/31 11:38:38;;;;;;;8.37;6.00;;;;;;;5.84;100.00;96894.38;5131877;27;20203;-70
2020/12/31 11:41:06;;;;;;;7.37;5.87;;;;;;;5.57;100.00;96892.19;5133726;27;20206;-70
2020/12/31 11:43:33;;;;;;;7.40;6.60;;;;;;;5.59;100.00;96884.44;5131049;27;20203;-68
2020/12/31 11:46:09;;;;;;;8.60;6.80;;;;;;;5.94;100.00;96890.41;5133234;27;20348;-71
2020/12/31 11:48:36;;;;;;;8.10;5.87;;;;;;;5.35;100.00;96869.84;5132426;27;20621;-72
2020/12/31 11:51:03;;;;;;;8.23;6.90;;;;;;;5.61;100.00;96873.97;5133910;27;20226;-71
2020/12/31 11:53:30;;;;;;;10.13;7.20;;;;;;;5.98;100.00;96863.97;5115146;27;20695;-71
2020/12/31 11:56:02;;;;;;;8.37;6.67;;;;;;;6.12;100.00;96861.72;5133047;27;20731;-70
2020/12/31 11:58:29;;;;;;;7.70;6.53;;;;;;;5.76;100.00;96867.88;5133344;27;20227;-74
2020/12/31 12:00:55;;;;;;;8.13;6.63;;;;;;;5.84;100.00;96864.25;5133020;27;20694;-70
2020/12/31 12:03:22;;;;;;;8.87;6.63;;;;;;;5.75;100.00;96855.31;5131870;27;20206;-72